sensor_id;sensor_type;location;lat;lon;timestamp;pressure;altitude;pressure_sealevel;temperature;humidity
50734;BME280;36701;51.798;19.474;2022-10-04T00:07:02;98706.94;;;12.11;100.00
50734;BME280;36701;51.798;19.474;2022-10-04T00:09:45;98761.25;;;12.56;100.00
50734;BME280;36701;51.798;19.474;2022-10-04T00:12:24;98751.22;;;12.26;100.00
50734;BME280;36701;51.798;19.474;2022-10-04T00:14:56;98594.81;;;11.32;100.00
50734;BME280;36701;51.798;19.474;2022-10-04T00:17:27;98744.22;;;12.40;100.00
50734;BME280;36701;51.798;19.474;2022-10-04T00:19:56;98705.87;;;12.43;100.00
50734;BME280;36701;51.798;19.474;2022-10-04T00:22:27;98752.59;;;12.49;100.00
50734;BME280;36701;51.798;19.474;2022-10-04T00:25:15;98748.00;;;12.70;100.00
50734;BME280;36701;51.798;19.474;2022-10-04T00:28:13;98757.44;;;12.52;100.00
50734;BME280;36701;51.798;19.474;2022-10-04T00:30:40;98743.16;;;12.67;100.00
50734;BME280;36701;51.798;19.474;2022-10-04T00:33:06;98729.09;;;12.65;100.00
50734;BME280;36701;51.798;19.474;2022-10-04T00:40:39;98737.47;;;12.74;100.00
50734;BME280;36701;51.798;19.474;2022-10-04T00:43:25;98694.81;;;12.45;100.00
50734;BME280;36701;51.798;19.474;2022-10-04T00:46:01;98740.97;;;12.79;100.00
50734;BME280;36701;51.798;19.474;2022-10-04T00:48:34;98700.72;;;12.57;100.00
50734;BME280;36701;51.798;19.474;2022-10-04T00:56:55;98735.87;;;12.83;100.00
50734;BME280;36701;51.798;19.474;2022-10-04T00:59:35;98708.59;;;12.38;100.00
50734;BME280;36701;51.798;19.474;2022-10-04T01:02:14;98699.13;;;12.35;100.00
50734;BME280;36701;51.798;19.474;2022-10-04T01:07:14;98742.87;;;12.63;100.00
50734;BME280;36701;51.798;19.474;2022-10-04T01:09:51;98749.34;;;12.78;100.00
50734;BME280;36701;51.798;19.474;2022-10-04T01:18:07;98742.31;;;12.71;100.00
50734;BME280;36701;51.798;19.474;2022-10-04T01:26:54;98744.75;;;12.68;100.00
50734;BME280;36701;51.798;19.474;2022-10-04T01:29:26;98739.34;;;12.94;100.00
50734;BME280;36701;51.798;19.474;2022-10-04T01:31:53;98694.53;;;12.57;100.00
50734;BME280;36701;51.798;19.474;2022-10-04T01:34:28;98737.47;;;12.94;100.00
50734;BME280;36701;51.798;19.474;2022-10-04T01:36:58;98694.53;;;12.67;100.00
50734;BME280;36701;51.798;19.474;2022-10-04T01:39:27;98691.56;;;12.58;100.00
50734;BME280;36701;51.798;19.474;2022-10-04T01:42:31;98746.94;;;12.86;100.00
50734;BME280;36701;51.798;19.474;2022-10-04T01:49:52;98664.03;;;12.30;100.00
50734;BME280;36701;51.798;19.474;2022-10-04T01:52:41;98695.63;;;12.50;100.00
50734;BME280;36701;51.798;19.474;2022-10-04T01:55:24;98695.34;;;12.47;100.00
50734;BME280;36701;51.798;19.474;2022-10-04T01:58:15;98733.13;;;12.78;100.00
50734;BME280;36701;51.798;19.474;2022-10-04T02:01:06;98709.94;;;12.35;100.00
50734;BME280;36701;51.798;19.474;2022-10-04T02:03:41;98693.72;;;12.46;100.00
50734;BME280;36701;51.798;19.474;2022-10-04T02:06:11;98726.97;;;12.67;100.00
50734;BME280;36701;51.798;19.474;2022-10-04T02:08:46;98728.28;;;12.49;100.00
50734;BME280;36701;51.798;19.474;2022-10-04T02:11:19;98749.34;;;12.57;100.00
50734;BME280;36701;51.798;19.474;2022-10-04T02:13:51;98744.22;;;12.45;100.00
50734;BME280;36701;51.798;19.474;2022-10-04T02:16:20;98758.00;;;12.39;100.00
50734;BME280;36701;51.798;19.474;2022-10-04T02:18:49;98676.94;;;11.97;100.00
50734;BME280;36701;51.798;19.474;2022-10-04T02:21:16;98743.16;;;12.67;100.00
50734;BME280;36701;51.798;19.474;2022-10-04T02:23:45;98680.75;;;12.38;100.00
50734;BME280;36701;51.798;19.474;2022-10-04T02:26:12;98723.97;;;12.63;100.00
50734;BME280;36701;51.798;19.474;2022-10-04T02:28:39;98733.16;;;12.57;100.00
50734;BME280;36701;51.798;19.474;2022-10-04T02:31:07;98694.00;;;12.44;100.00
50734;BME280;36701;51.798;19.474;2022-10-04T02:33:56;98735.31;;;12.76;100.00
50734;BME280;36701;51.798;19.474;2022-10-04T02:36:26;98736.37;;;12.69;100.00
50734;BME280;36701;51.798;19.474;2022-10-04T02:39:05;98735.31;;;12.70;100.00
50734;BME280;36701;51.798;19.474;2022-10-04T02:41:57;98752.06;;;12.72;100.00
50734;BME280;36701;51.798;19.474;2022-10-04T02:44:34;98748.81;;;12.60;100.00
50734;BME280;36701;51.798;19.474;2022-10-04T02:47:11;98730.72;;;12.66;100.00
50734;BME280;36701;51.798;19.474;2022-10-04T02:49:43;98749.91;;;12.80;100.00
50734;BME280;36701;51.798;19.474;2022-10-04T02:52:17;98748.28;;;12.94;100.00
50734;BME280;36701;51.798;19.474;2022-10-04T02:55:03;98741.78;;;12.85;100.00
50734;BME280;36701;51.798;19.474;2022-10-04T02:57:40;98704.53;;;12.35;100.00
50734;BME280;36701;51.798;19.474;2022-10-04T03:00:20;98743.13;;;12.87;100.00
50734;BME280;36701;51.798;19.474;2022-10-04T03:03:07;98704.81;;;12.60;100.00
50734;BME280;36701;51.798;19.474;2022-10-04T03:05:37;98746.38;;;12.79;100.00
50734;BME280;36701;51.798;19.474;2022-10-04T03:08:04;98741.53;;;12.86;100.00
50734;BME280;36701;51.798;19.474;2022-10-04T03:10:31;98738.53;;;12.78;100.00
50734;BME280;36701;51.798;19.474;2022-10-04T03:13:04;98726.66;;;12.84;100.00
50734;BME280;36701;51.798;19.474;2022-10-04T03:15:31;98746.09;;;12.86;100.00
50734;BME280;36701;51.798;19.474;2022-10-04T03:17:58;98741.81;;;12.64;100.00
50734;BME280;36701;51.798;19.474;2022-10-04T03:20:25;98702.91;;;12.34;100.00
50734;BME280;36701;51.798;19.474;2022-10-04T03:22:54;98725.56;;;12.18;100.00
50734;BME280;36701;51.798;19.474;2022-10-04T03:25:33;98737.47;;;12.53;100.00
50734;BME280;36701;51.798;19.474;2022-10-04T03:28:01;98717.50;;;12.59;100.00
50734;BME280;36701;51.798;19.474;2022-10-04T03:30:29;98765.03;;;12.70;100.00
50734;BME280;36701;51.798;19.474;2022-10-04T03:32:57;98742.34;;;12.56;100.00
50734;BME280;36701;51.798;19.474;2022-10-04T03:35:30;98719.34;;;12.12;100.00
50734;BME280;36701;51.798;19.474;2022-10-04T03:37:58;98769.88;;;12.53;100.00
50734;BME280;36701;51.798;19.474;2022-10-04T03:40:31;98738.00;;;12.55;100.00
50734;BME280;36701;51.798;19.474;2022-10-04T03:42:59;98771.25;;;12.81;100.00
50734;BME280;36701;51.798;19.474;2022-10-04T03:45:28;98780.66;;;12.27;100.00
50734;BME280;36701;51.798;19.474;2022-10-04T03:48:00;98777.44;;;12.71;100.00
50734;BME280;36701;51.798;19.474;2022-10-04T03:50:34;98721.25;;;12.43;100.00
50734;BME280;36701;51.798;19.474;2022-10-04T03:53:07;98775.81;;;12.60;100.00
50734;BME280;36701;51.798;19.474;2022-10-04T03:55:39;98754.22;;;12.60;100.00
50734;BME280;36701;51.798;19.474;2022-10-04T03:58:10;98728.28;;;12.33;100.00
50734;BME280;36701;51.798;19.474;2022-10-04T04:00:44;98758.00;;;12.59;100.00
50734;BME280;36701;51.798;19.474;2022-10-04T04:03:19;98741.75;;;12.13;100.00
50734;BME280;36701;51.798;19.474;2022-10-04T04:05:52;98758.53;;;12.35;100.00
50734;BME280;36701;51.798;19.474;2022-10-04T04:08:30;98779.88;;;12.68;100.00
50734;BME280;36701;51.798;19.474;2022-10-04T04:11:00;98761.78;;;12.84;100.00
50734;BME280;36701;51.798;19.474;2022-10-04T04:13:56;98740.69;;;12.34;100.00
50734;BME280;36701;51.798;19.474;2022-10-04T04:16:25;98736.63;;;12.16;100.00
50734;BME280;36701;51.798;19.474;2022-10-04T04:18:54;98766.91;;;12.54;100.00
50734;BME280;36701;51.798;19.474;2022-10-04T04:21:24;98754.75;;;12.57;100.00
50734;BME280;36701;51.798;19.474;2022-10-04T04:24:02;98734.47;;;12.13;100.00
50734;BME280;36701;51.798;19.474;2022-10-04T04:26:37;98767.16;;;12.27;100.00
50734;BME280;36701;51.798;19.474;2022-10-04T04:29:14;98776.34;;;12.47;100.00
50734;BME280;36701;51.798;19.474;2022-10-04T04:34:43;98788.22;;;12.46;100.00
50734;BME280;36701;51.798;19.474;2022-10-04T04:37:10;98792.56;;;12.57;100.00
50734;BME280;36701;51.798;19.474;2022-10-04T04:39:36;98793.94;;;12.60;100.00
50734;BME280;36701;51.798;19.474;2022-10-04T04:44:49;98770.19;;;12.67;100.00
50734;BME280;36701;51.798;19.474;2022-10-04T04:47:43;98794.19;;;12.89;100.00
50734;BME280;36701;51.798;19.474;2022-10-04T04:50:20;98800.69;;;12.93;100.00
50734;BME280;36701;51.798;19.474;2022-10-04T04:53:02;98825.53;;;12.75;100.00
50734;BME280;36701;51.798;19.474;2022-10-04T04:55:51;98804.22;;;12.83;100.00
50734;BME280;36701;51.798;19.474;2022-10-04T04:58:28;98810.41;;;12.89;100.00
50734;BME280;36701;51.798;19.474;2022-10-04T05:01:01;98702.34;;;12.07;100.00
50734;BME280;36701;51.798;19.474;2022-10-04T05:03:28;98756.94;;;12.45;100.00
50734;BME280;36701;51.798;19.474;2022-10-04T05:05:56;98826.87;;;12.87;100.00
50734;BME280;36701;51.798;19.474;2022-10-04T05:08:28;98812.56;;;12.66;100.00
50734;BME280;36701;51.798;19.474;2022-10-04T05:11:02;98842.56;;;12.85;100.00
50734;BME280;36701;51.798;19.474;2022-10-04T05:13:37;98829.84;;;12.86;100.00
50734;BME280;36701;51.798;19.474;2022-10-04T05:16:11;98782.31;;;12.75;100.00
50734;BME280;36701;51.798;19.474;2022-10-04T05:18:39;98829.31;;;12.89;100.00
50734;BME280;36701;51.798;19.474;2022-10-04T05:21:40;98834.72;;;12.63;100.00
50734;BME280;36701;51.798;19.474;2022-10-04T05:24:11;98840.13;;;12.74;100.00
50734;BME280;36701;51.798;19.474;2022-10-04T05:26:40;98839.03;;;12.75;100.00
50734;BME280;36701;51.798;19.474;2022-10-04T05:29:17;98844.72;;;12.73;100.00
50734;BME280;36701;51.798;19.474;2022-10-04T05:34:30;98844.19;;;12.97;100.00
50734;BME280;36701;51.798;19.474;2022-10-04T05:37:20;98853.66;;;12.84;100.00
50734;BME280;36701;51.798;19.474;2022-10-04T05:42:26;98865.56;;;12.88;100.00
50734;BME280;36701;51.798;19.474;2022-10-04T05:44:56;98872.81;;;12.72;100.00
50734;BME280;36701;51.798;19.474;2022-10-04T05:47:27;98868.22;;;12.67;100.00
50734;BME280;36701;51.798;19.474;2022-10-04T05:49:57;98863.88;;;12.71;100.00
50734;BME280;36701;51.798;19.474;2022-10-04T05:52:28;98870.94;;;12.93;100.00
50734;BME280;36701;51.798;19.474;2022-10-04T06:00:13;98834.69;;;12.53;100.00
50734;BME280;36701;51.798;19.474;2022-10-04T06:05:53;98854.72;;;12.67;100.00
50734;BME280;36701;51.798;19.474;2022-10-04T06:11:17;98843.06;;;12.62;100.00
50734;BME280;36701;51.798;19.474;2022-10-04T06:22:15;98910.97;;;13.12;100.00
50734;BME280;36701;51.798;19.474;2022-10-04T06:24:46;98908.25;;;13.01;100.00
50734;BME280;36701;51.798;19.474;2022-10-04T06:27:21;98859.03;;;12.74;100.00
50734;BME280;36701;51.798;19.474;2022-10-04T06:30:11;98907.19;;;13.02;100.00
50734;BME280;36701;51.798;19.474;2022-10-04T06:43:53;98899.84;;;12.77;100.00
50734;BME280;36701;51.798;19.474;2022-10-04T06:46:49;98910.91;;;12.86;100.00
50734;BME280;36701;51.798;19.474;2022-10-04T06:49:19;98934.78;;;13.15;100.00
50734;BME280;36701;51.798;19.474;2022-10-04T07:00:30;98956.41;;;13.30;100.00
50734;BME280;36701;51.798;19.474;2022-10-04T07:05:57;98957.53;;;13.34;100.00
50734;BME280;36701;51.798;19.474;2022-10-04T07:08:44;98964.53;;;13.35;100.00
50734;BME280;36701;51.798;19.474;2022-10-04T07:11:23;98975.09;;;13.37;100.00
50734;BME280;36701;51.798;19.474;2022-10-04T07:14:12;98953.72;;;13.35;100.00
50734;BME280;36701;51.798;19.474;2022-10-04T07:16:47;98972.13;;;13.54;100.00
50734;BME280;36701;51.798;19.474;2022-10-04T07:19:30;98968.59;;;13.27;100.00
50734;BME280;36701;51.798;19.474;2022-10-04T07:27:09;98977.53;;;13.38;100.00
50734;BME280;36701;51.798;19.474;2022-10-04T07:29:45;98979.72;;;13.47;100.00
50734;BME280;36701;51.798;19.474;2022-10-04T07:32:24;98982.88;;;13.13;100.00
50734;BME280;36701;51.798;19.474;2022-10-04T07:37:50;98955.78;;;12.92;100.00
50734;BME280;36701;51.798;19.474;2022-10-04T07:40:27;98999.12;;;13.23;100.00
50734;BME280;36701;51.798;19.474;2022-10-04T07:43:05;98945.59;;;13.30;100.00
50734;BME280;36701;51.798;19.474;2022-10-04T07:45:36;99002.69;;;13.54;100.00
50734;BME280;36701;51.798;19.474;2022-10-04T07:50:40;98995.41;;;13.75;100.00
50734;BME280;36701;51.798;19.474;2022-10-04T07:53:17;98947.78;;;13.38;100.00
50734;BME280;36701;51.798;19.474;2022-10-04T07:56:09;98968.56;;;13.12;100.00
50734;BME280;36701;51.798;19.474;2022-10-04T08:01:32;98988.88;;;13.35;100.00
50734;BME280;36701;51.798;19.474;2022-10-04T08:04:16;99008.38;;;13.63;100.00
50734;BME280;36701;51.798;19.474;2022-10-04T08:06:59;98963.75;;;13.35;100.00
50734;BME280;36701;51.798;19.474;2022-10-04T08:12:55;99020.84;;;13.74;100.00
50734;BME280;36701;51.798;19.474;2022-10-04T08:20:34;99021.91;;;13.68;100.00
50734;BME280;36701;51.798;19.474;2022-10-04T08:59:57;99073.34;;;13.84;100.00
50734;BME280;36701;51.798;19.474;2022-10-04T09:03:01;99037.59;;;13.66;100.00
50734;BME280;36701;51.798;19.474;2022-10-04T09:06:06;99075.50;;;14.12;100.00
50734;BME280;36701;51.798;19.474;2022-10-04T09:25:46;99034.38;;;13.74;100.00
50734;BME280;36701;51.798;19.474;2022-10-04T09:40:17;99091.97;;;14.47;100.00
50734;BME280;36701;51.798;19.474;2022-10-04T09:45:33;99047.03;;;14.30;100.00
50734;BME280;36701;51.798;19.474;2022-10-04T09:48:18;99049.97;;;14.54;100.00
50734;BME280;36701;51.798;19.474;2022-10-04T10:17:09;99139.91;;;14.46;100.00
50734;BME280;36701;51.798;19.474;2022-10-04T10:20:02;99123.66;;;14.46;100.00
50734;BME280;36701;51.798;19.474;2022-10-04T10:37:33;99162.59;;;15.07;100.00
50734;BME280;36701;51.798;19.474;2022-10-04T10:48:17;99167.50;;;14.95;100.00
50734;BME280;36701;51.798;19.474;2022-10-04T11:17:36;99190.47;;;15.23;100.00
50734;BME280;36701;51.798;19.474;2022-10-04T11:46:27;99199.53;;;15.63;100.00
50734;BME280;36701;51.798;19.474;2022-10-04T11:54:36;99209.59;;;15.62;100.00
50734;BME280;36701;51.798;19.474;2022-10-04T12:00:13;99218.31;;;15.54;100.00
50734;BME280;36701;51.798;19.474;2022-10-04T12:05:39;99214.31;;;15.41;100.00
50734;BME280;36701;51.798;19.474;2022-10-04T12:33:31;99232.50;;;16.01;100.00
50734;BME280;36701;51.798;19.474;2022-10-04T12:38:56;99244.72;;;15.98;100.00
50734;BME280;36701;51.798;19.474;2022-10-04T12:41:52;99244.53;;;16.29;100.00
50734;BME280;36701;51.798;19.474;2022-10-04T12:44:43;99218.50;;;16.23;100.00
50734;BME280;36701;51.798;19.474;2022-10-04T12:47:41;99232.47;;;16.46;100.00
50734;BME280;36701;51.798;19.474;2022-10-04T12:56:13;99247.69;;;16.47;100.00
50734;BME280;36701;51.798;19.474;2022-10-04T13:04:18;99246.75;;;16.62;100.00
50734;BME280;36701;51.798;19.474;2022-10-04T13:06:59;99240.91;;;16.79;100.00
50734;BME280;36701;51.798;19.474;2022-10-04T13:12:26;99209.91;;;16.45;100.00
50734;BME280;36701;51.798;19.474;2022-10-04T13:28:56;99253.59;;;16.54;100.00
50734;BME280;36701;51.798;19.474;2022-10-04T13:31:39;99198.66;;;16.28;100.00
50734;BME280;36701;51.798;19.474;2022-10-04T13:37:24;99239.75;;;16.85;100.00
50734;BME280;36701;51.798;19.474;2022-10-04T13:49:18;99242.78;;;17.13;100.00
50734;BME280;36701;51.798;19.474;2022-10-04T13:55:26;99258.22;;;16.93;100.00
50734;BME280;36701;51.798;19.474;2022-10-04T14:32:34;99226.22;;;17.09;100.00
50734;BME280;36701;51.798;19.474;2022-10-04T14:51:41;99246.87;;;16.81;100.00
50734;BME280;36701;51.798;19.474;2022-10-04T14:54:25;99229.88;;;16.65;100.00
50734;BME280;36701;51.798;19.474;2022-10-04T15:00:06;99244.31;;;16.95;100.00
50734;BME280;36701;51.798;19.474;2022-10-04T15:02:44;99262.34;;;17.39;100.00
50734;BME280;36701;51.798;19.474;2022-10-04T15:05:39;99242.09;;;16.62;100.00
50734;BME280;36701;51.798;19.474;2022-10-04T15:10:54;99285.25;;;17.38;100.00
50734;BME280;36701;51.798;19.474;2022-10-04T15:16:05;99280.66;;;17.04;100.00
50734;BME280;36701;51.798;19.474;2022-10-04T15:18:55;99280.81;;;17.18;100.00
50734;BME280;36701;51.798;19.474;2022-10-04T15:21:45;99237.47;;;16.97;100.00
50734;BME280;36701;51.798;19.474;2022-10-04T15:29:31;99284.91;;;16.86;100.00
50734;BME280;36701;51.798;19.474;2022-10-04T15:35:14;99267.69;;;16.96;100.00
50734;BME280;36701;51.798;19.474;2022-10-04T15:40:29;99257.25;;;16.74;100.00
50734;BME280;36701;51.798;19.474;2022-10-04T15:45:54;99305.03;;;16.45;100.00
50734;BME280;36701;51.798;19.474;2022-10-04T15:54:07;99263.94;;;16.52;100.00
50734;BME280;36701;51.798;19.474;2022-10-04T15:56:54;99263.00;;;16.27;100.00
50734;BME280;36701;51.798;19.474;2022-10-04T16:08:30;99273.88;;;16.27;100.00
50734;BME280;36701;51.798;19.474;2022-10-04T16:11:02;99304.88;;;16.26;100.00
50734;BME280;36701;51.798;19.474;2022-10-04T16:13:38;99317.00;;;16.44;100.00
50734;BME280;36701;51.798;19.474;2022-10-04T16:16:20;99318.94;;;16.39;100.00
50734;BME280;36701;51.798;19.474;2022-10-04T16:27:42;99329.66;;;16.14;100.00
50734;BME280;36701;51.798;19.474;2022-10-04T16:30:12;99290.44;;;15.71;100.00
50734;BME280;36701;51.798;19.474;2022-10-04T16:35:31;99296.50;;;15.42;100.00
50734;BME280;36701;51.798;19.474;2022-10-04T16:56:26;99346.94;;;15.53;100.00
50734;BME280;36701;51.798;19.474;2022-10-04T16:59:02;99299.00;;;15.13;100.00
50734;BME280;36701;51.798;19.474;2022-10-04T17:04:59;99346.44;;;15.25;100.00
50734;BME280;36701;51.798;19.474;2022-10-04T17:07:56;99342.66;;;14.91;100.00
50734;BME280;36701;51.798;19.474;2022-10-04T17:10:30;99299.28;;;14.65;100.00
50734;BME280;36701;51.798;19.474;2022-10-04T17:13:13;99350.22;;;14.83;100.00
50734;BME280;36701;51.798;19.474;2022-10-04T17:15:48;99351.31;;;14.72;100.00
50734;BME280;36701;51.798;19.474;2022-10-04T17:18:37;99309.75;;;14.30;100.00
50734;BME280;36701;51.798;19.474;2022-10-04T17:21:22;99353.19;;;14.61;100.00
50734;BME280;36701;51.798;19.474;2022-10-04T17:24:35;99345.06;;;14.82;100.00
50734;BME280;36701;51.798;19.474;2022-10-04T17:27:02;99308.34;;;14.12;100.00
50734;BME280;36701;51.798;19.474;2022-10-04T17:35:30;99348.09;;;14.85;100.00
50734;BME280;36701;51.798;19.474;2022-10-04T17:38:11;99356.75;;;14.87;100.00
50734;BME280;36701;51.798;19.474;2022-10-04T17:48:30;99357.72;;;14.35;100.00
50734;BME280;36701;51.798;19.474;2022-10-04T17:51:29;99353.34;;;14.34;100.00
50734;BME280;36701;51.798;19.474;2022-10-04T17:54:23;99353.87;;;14.21;100.00
50734;BME280;36701;51.798;19.474;2022-10-04T17:57:18;99350.31;;;14.15;100.00
50734;BME280;36701;51.798;19.474;2022-10-04T17:59:56;99357.12;;;14.23;100.00
50734;BME280;36701;51.798;19.474;2022-10-04T18:02:57;99359.38;;;13.83;100.00
50734;BME280;36701;51.798;19.474;2022-10-04T18:05:28;99375.97;;;13.97;100.00
50734;BME280;36701;51.798;19.474;2022-10-04T18:10:31;99365.12;;;13.92;100.00
50734;BME280;36701;51.798;19.474;2022-10-04T18:13:03;99379.72;;;13.91;100.00
50734;BME280;36701;51.798;19.474;2022-10-04T18:15:33;99379.22;;;13.99;100.00
50734;BME280;36701;51.798;19.474;2022-10-04T18:18:14;99385.13;;;13.86;100.00
50734;BME280;36701;51.798;19.474;2022-10-04T18:23:27;99383.47;;;13.85;100.00
50734;BME280;36701;51.798;19.474;2022-10-04T18:25:57;99351.88;;;13.48;100.00
50734;BME280;36701;51.798;19.474;2022-10-04T18:28:24;99326.41;;;13.38;100.00
50734;BME280;36701;51.798;19.474;2022-10-04T18:30:52;99356.78;;;13.51;100.00
50734;BME280;36701;51.798;19.474;2022-10-04T18:33:30;99392.72;;;13.46;100.00
50734;BME280;36701;51.798;19.474;2022-10-04T18:36:23;99390.13;;;13.61;100.00
50734;BME280;36701;51.798;19.474;2022-10-04T18:41:52;99369.16;;;13.41;100.00
50734;BME280;36701;51.798;19.474;2022-10-04T18:44:25;99412.66;;;13.72;100.00
50734;BME280;36701;51.798;19.474;2022-10-04T18:46:56;99406.72;;;13.75;100.00
50734;BME280;36701;51.798;19.474;2022-10-04T18:49:28;99420.81;;;13.77;100.00
50734;BME280;36701;51.798;19.474;2022-10-04T19:06:05;99431.53;;;13.67;100.00
50734;BME280;36701;51.798;19.474;2022-10-04T19:08:47;99428.28;;;13.65;100.00
50734;BME280;36701;51.798;19.474;2022-10-04T19:11:29;99428.91;;;13.72;100.00
50734;BME280;36701;51.798;19.474;2022-10-04T19:16:58;99416.81;;;13.20;100.00
50734;BME280;36701;51.798;19.474;2022-10-04T19:22:41;99389.13;;;12.76;100.00
50734;BME280;36701;51.798;19.474;2022-10-04T19:25:20;99431.84;;;13.33;100.00
50734;BME280;36701;51.798;19.474;2022-10-04T19:27:58;99441.91;;;13.11;100.00
50734;BME280;36701;51.798;19.474;2022-10-04T19:36:22;99396.44;;;13.07;100.00
50734;BME280;36701;51.798;19.474;2022-10-04T19:39:07;99404.38;;;12.87;100.00
50734;BME280;36701;51.798;19.474;2022-10-04T19:47:46;99450.78;;;13.33;100.00
50734;BME280;36701;51.798;19.474;2022-10-04T19:50:27;99448.28;;;12.99;100.00
50734;BME280;36701;51.798;19.474;2022-10-04T19:55:54;99452.87;;;12.99;100.00
50734;BME280;36701;51.798;19.474;2022-10-04T19:58:41;99447.56;;;12.82;100.00
50734;BME280;36701;51.798;19.474;2022-10-04T20:01:12;99444.69;;;12.66;100.00
50734;BME280;36701;51.798;19.474;2022-10-04T20:03:40;99447.81;;;12.80;100.00
50734;BME280;36701;51.798;19.474;2022-10-04T20:06:06;99450.59;;;12.63;100.00
50734;BME280;36701;51.798;19.474;2022-10-04T20:11:16;99416.94;;;12.05;100.00
50734;BME280;36701;51.798;19.474;2022-10-04T20:13:50;99457.38;;;12.66;100.00
50734;BME280;36701;51.798;19.474;2022-10-04T20:19:17;99466.41;;;12.77;100.00
50734;BME280;36701;51.798;19.474;2022-10-04T20:24:48;99468.94;;;12.61;100.00
50734;BME280;36701;51.798;19.474;2022-10-04T20:34:53;99426.12;;;12.48;100.00
50734;BME280;36701;51.798;19.474;2022-10-04T20:37:20;99465.19;;;12.62;100.00
50734;BME280;36701;51.798;19.474;2022-10-04T20:44:55;99475.53;;;12.48;100.00
50734;BME280;36701;51.798;19.474;2022-10-04T20:50:30;99463.47;;;12.34;100.00
50734;BME280;36701;51.798;19.474;2022-10-04T20:52:59;99483.25;;;12.40;100.00
50734;BME280;36701;51.798;19.474;2022-10-04T20:55:34;99483.19;;;12.34;100.00
50734;BME280;36701;51.798;19.474;2022-10-04T20:58:18;99473.81;;;12.20;100.00
50734;BME280;36701;51.798;19.474;2022-10-04T21:01:00;99423.03;;;11.78;100.00
50734;BME280;36701;51.798;19.474;2022-10-04T21:03:35;99474.22;;;12.29;100.00
50734;BME280;36701;51.798;19.474;2022-10-04T21:06:05;99446.69;;;12.10;100.00
50734;BME280;36701;51.798;19.474;2022-10-04T21:08:34;99484.59;;;12.37;100.00
50734;BME280;36701;51.798;19.474;2022-10-04T21:13:47;99481.63;;;12.39;100.00
50734;BME280;36701;51.798;19.474;2022-10-04T21:17:09;99486.84;;;12.45;100.00
50734;BME280;36701;51.798;19.474;2022-10-04T21:22:03;99471.03;;;12.32;100.00
50734;BME280;36701;51.798;19.474;2022-10-04T21:24:37;99469.19;;;12.38;100.00
50734;BME280;36701;51.798;19.474;2022-10-04T21:27:07;99465.00;;;12.47;100.00
50734;BME280;36701;51.798;19.474;2022-10-04T21:29:34;99472.44;;;12.40;100.00
50734;BME280;36701;51.798;19.474;2022-10-04T21:32:00;99479.38;;;12.30;100.00
50734;BME280;36701;51.798;19.474;2022-10-04T21:34:26;99458.28;;;12.27;100.00
50734;BME280;36701;51.798;19.474;2022-10-04T21:36:53;99446.00;;;12.20;100.00
50734;BME280;36701;51.798;19.474;2022-10-04T21:39:20;99481.44;;;12.45;100.00
50734;BME280;36701;51.798;19.474;2022-10-04T21:41:46;99475.16;;;12.62;100.00
50734;BME280;36701;51.798;19.474;2022-10-04T21:44:13;99480.88;;;12.65;100.00
50734;BME280;36701;51.798;19.474;2022-10-04T21:46:39;99441.06;;;12.33;100.00
50734;BME280;36701;51.798;19.474;2022-10-04T21:49:06;99458.13;;;12.17;100.00
50734;BME280;36701;51.798;19.474;2022-10-04T21:51:33;99467.63;;;12.20;100.00
50734;BME280;36701;51.798;19.474;2022-10-04T21:54:05;99471.56;;;12.34;100.00
50734;BME280;36701;51.798;19.474;2022-10-04T21:56:32;99485.09;;;12.34;100.00
50734;BME280;36701;51.798;19.474;2022-10-04T21:58:58;99482.34;;;12.12;100.00
50734;BME280;36701;51.798;19.474;2022-10-04T22:01:46;99462.84;;;12.05;100.00
50734;BME280;36701;51.798;19.474;2022-10-04T22:04:13;99505.91;;;11.99;100.00
50734;BME280;36701;51.798;19.474;2022-10-04T22:06:39;99499.81;;;12.26;100.00
50734;BME280;36701;51.798;19.474;2022-10-04T22:09:06;99515.84;;;12.33;100.00
50734;BME280;36701;51.798;19.474;2022-10-04T22:11:33;99471.31;;;11.96;100.00
50734;BME280;36701;51.798;19.474;2022-10-04T22:13:59;99494.59;;;12.20;100.00
50734;BME280;36701;51.798;19.474;2022-10-04T22:16:25;99472.41;;;11.95;100.00
50734;BME280;36701;51.798;19.474;2022-10-04T22:18:52;99505.37;;;12.37;100.00
50734;BME280;36701;51.798;19.474;2022-10-04T22:21:19;99506.66;;;12.51;100.00
50734;BME280;36701;51.798;19.474;2022-10-04T22:23:45;99517.31;;;12.85;100.00
50734;BME280;36701;51.798;19.474;2022-10-04T22:26:16;99481.63;;;12.39;100.00
50734;BME280;36701;51.798;19.474;2022-10-04T22:28:45;99511.47;;;12.71;100.00
50734;BME280;36701;51.798;19.474;2022-10-04T22:31:15;99516.81;;;12.44;100.00
50734;BME280;36701;51.798;19.474;2022-10-04T22:33:43;99521.31;;;12.60;100.00
50734;BME280;36701;51.798;19.474;2022-10-04T22:36:24;99534.78;;;12.55;100.00
50734;BME280;36701;51.798;19.474;2022-10-04T22:39:00;99530.13;;;12.72;100.00
50734;BME280;36701;51.798;19.474;2022-10-04T22:41:34;99489.22;;;12.20;100.00
50734;BME280;36701;51.798;19.474;2022-10-04T22:44:25;99508.06;;;12.37;100.00
50734;BME280;36701;51.798;19.474;2022-10-04T22:46:58;99514.66;;;12.46;100.00
50734;BME280;36701;51.798;19.474;2022-10-04T22:49:28;99510.44;;;12.33;100.00
50734;BME280;36701;51.798;19.474;2022-10-04T22:51:57;99538.19;;;12.67;100.00
50734;BME280;36701;51.798;19.474;2022-10-04T22:54:26;99547.47;;;12.77;100.00
50734;BME280;36701;51.798;19.474;2022-10-04T22:56:57;99500.59;;;12.44;100.00